Time;durP1;ratioP1;P1;durP2;ratioP2;P2;SDS_P1;SDS_P2;PMS_P1;PMS_P2;Temp;Humidity;BMP_temperature;BMP_pressure;BME280_temperature;BME280_humidity;BME280_pressure;Samples;Min_cycle;Max_cycle;Signal;HPM_P1;HPM_P2
2023/03/30 00:01:20;;;;;;;5.35;1.45;;;;;;;;;;4937214;28;25102;-76
2023/03/30 00:03:48;;;;;;;7.03;2.75;;;;;;;;;;4939948;28;25061;-79
2023/03/30 00:06:21;;;;;;;2.88;2.03;;;;;;;;;;4936703;28;25083;-77
2023/03/30 00:08:48;;;;;;;4.13;1.55;;;;;;;;;;4934678;28;25140;-72
2023/03/30 00:11:15;;;;;;;3.88;2.42;;;;;;;;;;4940681;28;25165;-76
2023/03/30 00:13:42;;;;;;;3.42;2.03;;;;;;;;;;4944558;28;25085;-76
2023/03/30 00:16:09;;;;;;;3.28;1.33;;;;;;;;;;4939954;28;25056;-77
2023/03/30 00:18:38;;;;;;;3.03;1.27;;;;;;;;;;4940961;28;25081;-77
2023/03/30 00:21:04;;;;;;;4.00;2.00;;;;;;;;;;4937935;28;25102;-74
2023/03/30 00:23:30;;;;;;;9.35;2.08;;;;;;;;;;4937970;28;25100;-76
2023/03/30 00:25:56;;;;;;;3.42;1.85;;;;;;;;;;4955487;28;25095;-76
2023/03/30 00:28:22;;;;;;;7.30;1.73;;;;;;;;;;4937804;28;25065;-75
2023/03/30 00:30:49;;;;;;;3.47;1.65;;;;;;;;;;4943400;28;25061;-76
2023/03/30 00:33:15;;;;;;;3.17;1.40;;;;;;;;;;4944132;28;25064;-75
2023/03/30 00:35:41;;;;;;;7.22;1.67;;;;;;;;;;4941955;28;25175;-76
2023/03/30 00:38:07;;;;;;;3.47;1.52;;;;;;;;;;4937825;28;25105;-76
2023/03/30 00:40:33;;;;;;;4.95;1.83;;;;;;;;;;4941252;28;25103;-74
2023/03/30 00:43:10;;;;;;;5.53;1.33;;;;;;;;;;4937406;28;25167;-74
2023/03/30 00:45:37;;;;;;;3.85;2.00;;;;;;;;;;4947555;28;25070;-77
2023/03/30 00:48:03;;;;;;;9.65;1.80;;;;;;;;;;4948304;28;24833;-76
2023/03/30 00:50:37;;;;;;;2.65;1.63;;;;;;;;;;4950881;28;25168;-77
2023/03/30 00:53:07;;;;;;;4.50;1.95;;;;;;;;;;4952902;28;25075;-75
2023/03/30 00:55:34;;;;;;;6.63;1.92;;;;;;;;;;4953564;28;25071;-75
2023/03/30 00:58:00;;;;;;;4.18;1.70;;;;;;;;;;4948760;28;25151;-74
2023/03/30 01:00:26;;;;;;;13.75;2.10;;;;;;;;;;4943914;28;25076;-74
2023/03/30 01:02:57;;;;;;;3.42;1.75;;;;;;;;;;4953889;28;25168;-74
2023/03/30 01:05:23;;;;;;;4.45;1.65;;;;;;;;;;4960956;28;25099;-74
2023/03/30 01:07:50;;;;;;;4.35;1.25;;;;;;;;;;4951192;28;25067;-74
2023/03/30 01:10:16;;;;;;;7.53;1.67;;;;;;;;;;4949355;28;25099;-74
2023/03/30 01:12:42;;;;;;;4.47;2.08;;;;;;;;;;4946343;28;25136;-74
2023/03/30 01:15:09;;;;;;;4.80;1.90;;;;;;;;;;4952675;28;25090;-75
2023/03/30 01:17:44;;;;;;;3.83;1.75;;;;;;;;;;4941998;28;25057;-75
2023/03/30 01:20:22;;;;;;;1.58;1.42;;;;;;;;;;4942043;28;25050;-77
2023/03/30 01:23:05;;;;;;;10.48;2.05;;;;;;;;;;4938949;28;25119;-75
2023/03/30 01:25:49;;;;;;;3.55;1.88;;;;;;;;;;4961515;28;25084;-75
2023/03/30 01:28:25;;;;;;;3.88;1.50;;;;;;;;;;4945373;28;25060;-76
2023/03/30 01:31:09;;;;;;;7.30;1.65;;;;;;;;;;4938443;28;25066;-76
2023/03/30 01:33:54;;;;;;;6.20;1.50;;;;;;;;;;4946180;28;25168;-75
2023/03/30 01:36:19;;;;;;;4.50;1.60;;;;;;;;;;4949344;28;25072;-75
2023/03/30 01:38:57;;;;;;;3.20;1.23;;;;;;;;;;4961437;28;25092;-76
2023/03/30 01:41:23;;;;;;;7.85;1.98;;;;;;;;;;4950336;28;25123;-77
2023/03/30 01:43:55;;;;;;;2.22;1.33;;;;;;;;;;4945412;28;25071;-74
2023/03/30 01:46:48;;;;;;;5.88;2.08;;;;;;;;;;4949721;28;25090;-76
2023/03/30 01:49:26;;;;;;;1.60;1.25;;;;;;;;;;4958248;28;25072;-77
2023/03/30 01:52:07;;;;;;;6.57;2.05;;;;;;;;;;4956656;28;25073;-75
2023/03/30 01:54:36;;;;;;;6.70;1.60;;;;;;;;;;4950273;28;25112;-75
2023/03/30 01:57:06;;;;;;;3.58;1.40;;;;;;;;;;4948915;28;25075;-73
2023/03/30 01:59:36;;;;;;;4.47;1.70;;;;;;;;;;4952015;28;25062;-76
2023/03/30 02:02:05;;;;;;;4.90;1.48;;;;;;;;;;4964635;28;25062;-74
2023/03/30 02:04:34;;;;;;;4.72;1.80;;;;;;;;;;4958634;28;25054;-75
2023/03/30 02:07:03;;;;;;;2.38;1.65;;;;;;;;;;4952093;28;25062;-76
2023/03/30 02:09:30;;;;;;;4.97;2.00;;;;;;;;;;4939523;28;25089;-76
2023/03/30 02:11:56;;;;;;;4.30;1.40;;;;;;;;;;4940937;28;25062;-76
2023/03/30 02:14:25;;;;;;;3.33;1.40;;;;;;;;;;4944476;28;25138;-77
2023/03/30 02:16:54;;;;;;;3.85;1.38;;;;;;;;;;4949164;28;25071;-76
2023/03/30 02:19:20;;;;;;;3.47;1.90;;;;;;;;;;4942076;28;25104;-76
2023/03/30 02:21:46;;;;;;;4.78;1.60;;;;;;;;;;4946483;28;25061;-76
2023/03/30 02:24:18;;;;;;;5.03;1.40;;;;;;;;;;4942435;28;25077;-76
2023/03/30 02:26:46;;;;;;;5.78;1.35;;;;;;;;;;4948679;28;25083;-74
2023/03/30 02:29:13;;;;;;;3.10;1.33;;;;;;;;;;4942619;28;25140;-75
2023/03/30 02:31:39;;;;;;;5.53;1.10;;;;;;;;;;4942645;28;25097;-76
2023/03/30 02:34:11;;;;;;;1.63;1.35;;;;;;;;;;4952823;28;25070;-75
2023/03/30 02:36:37;;;;;;;;;;;;;;;;;;4948800;28;25053;-77
2023/03/30 02:39:04;;;;;;;3.03;1.40;;;;;;;;;;4949951;28;24088;-76
2023/03/30 02:41:37;;;;;;;7.68;2.63;;;;;;;;;;4952397;28;25105;-76
2023/03/30 02:44:14;;;;;;;2.42;1.27;;;;;;;;;;4950945;28;25071;-76
2023/03/30 02:46:53;;;;;;;8.40;1.10;;;;;;;;;;4944424;28;25083;-75
2023/03/30 02:49:22;;;;;;;3.72;1.40;;;;;;;;;;4954745;28;25082;-75
2023/03/30 02:51:51;;;;;;;4.70;1.40;;;;;;;;;;4951921;28;25172;-76
2023/03/30 02:54:26;;;;;;;2.60;0.98;;;;;;;;;;4946788;28;25056;-74
2023/03/30 02:56:52;;;;;;;2.72;1.23;;;;;;;;;;4950773;28;25228;-76
2023/03/30 02:59:20;;;;;;;3.50;1.08;;;;;;;;;;4949616;28;25071;-76
2023/03/30 03:01:46;;;;;;;5.00;1.38;;;;;;;;;;4951863;28;25057;-75
2023/03/30 03:04:14;;;;;;;8.38;1.33;;;;;;;;;;4944902;28;25144;-76
2023/03/30 03:06:41;;;;;;;1.73;1.05;;;;;;;;;;4948410;28;25098;-74
2023/03/30 03:09:07;;;;;;;0.70;0.68;;;;;;;;;;4950501;28;25075;-76
2023/03/30 03:11:33;;;;;;;3.92;1.25;;;;;;;;;;4942590;28;25139;-76
2023/03/30 03:13:59;;;;;;;7.28;1.42;;;;;;;;;;4950561;28;25137;-74
2023/03/30 03:16:25;;;;;;;10.23;1.02;;;;;;;;;;4943128;28;25067;-76
2023/03/30 03:18:51;;;;;;;3.65;1.27;;;;;;;;;;4967224;28;25082;-75
2023/03/30 03:21:17;;;;;;;3.90;1.10;;;;;;;;;;4952759;28;25067;-76
2023/03/30 03:23:47;;;;;;;5.70;1.58;;;;;;;;;;4948015;28;25234;-75
2023/03/30 03:26:13;;;;;;;9.07;1.80;;;;;;;;;;4945277;28;25054;-74
2023/03/30 03:28:39;;;;;;;5.53;1.33;;;;;;;;;;4943481;28;25116;-74
2023/03/30 03:31:05;;;;;;;7.20;1.20;;;;;;;;;;4949812;28;25088;-74
2023/03/30 03:33:31;;;;;;;2.35;1.08;;;;;;;;;;4949221;28;25055;-75
2023/03/30 03:35:58;;;;;;;3.92;1.27;;;;;;;;;;4953199;28;25051;-76
2023/03/30 03:38:24;;;;;;;7.15;1.35;;;;;;;;;;4948972;28;25096;-75
2023/03/30 03:40:51;;;;;;;5.95;1.23;;;;;;;;;;4950553;28;25064;-73
2023/03/30 03:43:18;;;;;;;3.25;1.05;;;;;;;;;;4946497;28;25089;-74
2023/03/30 03:45:45;;;;;;;7.30;1.55;;;;;;;;;;4945180;28;25059;-74
2023/03/30 03:48:11;;;;;;;4.40;1.63;;;;;;;;;;4943103;28;25070;-74
2023/03/30 03:50:37;;;;;;;4.15;1.52;;;;;;;;;;4950624;28;25056;-74
2023/03/30 03:53:03;;;;;;;4.72;1.10;;;;;;;;;;4944228;28;25067;-75
2023/03/30 03:55:29;;;;;;;3.63;1.00;;;;;;;;;;4948405;28;25103;-76
2023/03/30 03:57:55;;;;;;;3.90;1.65;;;;;;;;;;4943724;28;25279;-74
2023/03/30 04:00:22;;;;;;;6.25;1.40;;;;;;;;;;4945579;28;25109;-73
2023/03/30 04:02:48;;;;;;;5.80;1.35;;;;;;;;;;4951364;28;25142;-74
2023/03/30 04:05:14;;;;;;;3.63;1.63;;;;;;;;;;4940305;28;25078;-74
2023/03/30 04:07:40;;;;;;;5.20;1.42;;;;;;;;;;4943969;28;25062;-75
2023/03/30 04:10:07;;;;;;;2.97;1.80;;;;;;;;;;4950811;28;25056;-76
2023/03/30 04:12:33;;;;;;;4.22;1.42;;;;;;;;;;4955415;28;25170;-73
2023/03/30 04:14:59;;;;;;;6.93;1.65;;;;;;;;;;4946663;28;25069;-75
2023/03/30 04:17:25;;;;;;;7.43;1.85;;;;;;;;;;4941795;28;25141;-74
2023/03/30 04:19:53;;;;;;;13.95;1.98;;;;;;;;;;4947330;28;25056;-77
2023/03/30 04:22:23;;;;;;;6.93;2.92;;;;;;;;;;4951539;28;25086;-77
2023/03/30 04:24:49;;;;;;;8.13;1.88;;;;;;;;;;4945984;28;25038;-74
2023/03/30 04:27:15;;;;;;;4.30;1.70;;;;;;;;;;4950242;28;25079;-75
2023/03/30 04:29:43;;;;;;;6.63;1.65;;;;;;;;;;4951928;28;25070;-75
2023/03/30 04:32:11;;;;;;;7.43;2.03;;;;;;;;;;4960849;28;25136;-76
2023/03/30 04:34:41;;;;;;;7.72;2.58;;;;;;;;;;4951299;28;25151;-77
2023/03/30 04:37:07;;;;;;;6.68;2.63;;;;;;;;;;4942500;28;25066;-75
2023/03/30 04:39:34;;;;;;;12.48;3.13;;;;;;;;;;4942740;28;25105;-75
2023/03/30 04:42:02;;;;;;;7.72;3.05;;;;;;;;;;4948019;28;25131;-76
2023/03/30 04:44:29;;;;;;;11.05;2.95;;;;;;;;;;4951423;28;25055;-75
2023/03/30 04:46:57;;;;;;;9.82;2.70;;;;;;;;;;4942640;28;25050;-77
2023/03/30 04:49:23;;;;;;;9.80;3.05;;;;;;;;;;4945704;28;25094;-75
2023/03/30 04:51:49;;;;;;;12.70;2.70;;;;;;;;;;4945318;28;25123;-77
2023/03/30 04:54:15;;;;;;;15.13;2.65;;;;;;;;;;4945589;28;25235;-74
2023/03/30 04:56:41;;;;;;;10.88;3.75;;;;;;;;;;4941956;28;25101;-77
2023/03/30 04:59:07;;;;;;;7.32;3.35;;;;;;;;;;4952134;28;25070;-78
2023/03/30 05:01:33;;;;;;;11.90;4.00;;;;;;;;;;4958220;28;25075;-75
2023/03/30 05:03:59;;;;;;;13.63;2.40;;;;;;;;;;4953032;28;25103;-76
2023/03/30 05:06:26;;;;;;;9.32;3.65;;;;;;;;;;4953231;28;25136;-78
2023/03/30 05:08:52;;;;;;;10.27;2.72;;;;;;;;;;4940541;28;25183;-79
2023/03/30 05:11:18;;;;;;;8.57;3.30;;;;;;;;;;4951610;28;25053;-76
2023/03/30 05:13:44;;;;;;;6.68;1.92;;;;;;;;;;4949729;28;25082;-77
2023/03/30 05:16:10;;;;;;;5.55;1.90;;;;;;;;;;4939723;28;25092;-76
2023/03/30 05:18:37;;;;;;;11.55;2.40;;;;;;;;;;4943598;28;25060;-77
2023/03/30 05:21:03;;;;;;;9.50;2.85;;;;;;;;;;4945625;28;25065;-75
2023/03/30 05:23:29;;;;;;;6.70;2.10;;;;;;;;;;4945958;28;25047;-76
2023/03/30 05:25:55;;;;;;;9.43;2.83;;;;;;;;;;4947198;28;25069;-77
2023/03/30 05:28:22;;;;;;;8.93;2.72;;;;;;;;;;4948009;28;25083;-77
2023/03/30 05:30:52;;;;;;;8.35;2.45;;;;;;;;;;4946509;28;25065;-76
2023/03/30 05:33:18;;;;;;;15.80;3.95;;;;;;;;;;4960385;28;25056;-75
2023/03/30 05:35:44;;;;;;;14.73;2.92;;;;;;;;;;4948428;28;25091;-77
2023/03/30 05:38:10;;;;;;;14.50;3.20;;;;;;;;;;4943307;28;25069;-74
2023/03/30 05:40:36;;;;;;;13.13;3.10;;;;;;;;;;4946957;28;25109;-75
2023/03/30 05:43:02;;;;;;;13.30;3.17;;;;;;;;;;4942434;28;25100;-77
2023/03/30 05:45:29;;;;;;;19.88;3.10;;;;;;;;;;4948790;28;25074;-76
2023/03/30 05:47:55;;;;;;;15.65;3.05;;;;;;;;;;4941992;28;25069;-76
2023/03/30 05:50:21;;;;;;;14.63;2.85;;;;;;;;;;4938184;28;25047;-75
2023/03/30 05:52:47;;;;;;;15.50;3.15;;;;;;;;;;4929488;28;25133;-77
2023/03/30 05:55:14;;;;;;;9.93;3.05;;;;;;;;;;4932316;28;25071;-75
2023/03/30 05:57:40;;;;;;;18.40;3.63;;;;;;;;;;4933655;28;25053;-76
2023/03/30 06:00:06;;;;;;;21.50;4.40;;;;;;;;;;4945170;28;25068;-75
2023/03/30 06:02:32;;;;;;;14.13;3.67;;;;;;;;;;4940045;28;25062;-77
2023/03/30 06:05:00;;;;;;;16.17;3.53;;;;;;;;;;4939369;28;25074;-76
2023/03/30 06:07:26;;;;;;;21.23;3.40;;;;;;;;;;4950009;28;25151;-75
2023/03/30 06:09:53;;;;;;;21.42;3.13;;;;;;;;;;4945144;28;25072;-76
2023/03/30 06:12:19;;;;;;;19.40;3.45;;;;;;;;;;4946980;28;25094;-76
2023/03/30 06:14:45;;;;;;;15.73;3.05;;;;;;;;;;4940948;28;25071;-76
2023/03/30 06:17:12;;;;;;;17.23;4.10;;;;;;;;;;4942286;28;25122;-77
2023/03/30 06:19:38;;;;;;;26.13;4.13;;;;;;;;;;4940272;28;25085;-74
2023/03/30 06:22:05;;;;;;;10.98;2.65;;;;;;;;;;4940888;28;25132;-73
2023/03/30 06:24:31;;;;;;;15.07;3.25;;;;;;;;;;4947409;28;25065;-73
2023/03/30 06:26:58;;;;;;;10.85;3.38;;;;;;;;;;4950031;28;25090;-77
2023/03/30 06:29:24;;;;;;;11.23;3.28;;;;;;;;;;4946966;28;24943;-76
2023/03/30 06:31:50;;;;;;;23.80;3.83;;;;;;;;;;4944175;28;25074;-71
2023/03/30 06:34:16;;;;;;;12.18;3.10;;;;;;;;;;4938815;28;25178;-74
2023/03/30 06:36:42;;;;;;;13.38;2.70;;;;;;;;;;4940447;28;25078;-74
2023/03/30 06:39:09;;;;;;;13.02;3.72;;;;;;;;;;4938397;28;25096;-75
2023/03/30 06:41:35;;;;;;;17.70;3.80;;;;;;;;;;4944817;28;25090;-74
2023/03/30 06:44:01;;;;;;;8.73;3.08;;;;;;;;;;4936860;28;25185;-72
2023/03/30 06:46:27;;;;;;;14.95;4.57;;;;;;;;;;4937880;28;25104;-75
2023/03/30 06:48:53;;;;;;;17.20;2.90;;;;;;;;;;4935104;28;25075;-74
2023/03/30 06:51:20;;;;;;;20.52;4.32;;;;;;;;;;4953285;28;25108;-76
2023/03/30 06:53:46;;;;;;;13.38;3.03;;;;;;;;;;4951927;28;25113;-75
2023/03/30 06:56:12;;;;;;;25.17;3.88;;;;;;;;;;4940211;28;25149;-77
2023/03/30 06:58:38;;;;;;;12.27;3.45;;;;;;;;;;4938147;28;25142;-75
2023/03/30 07:01:14;;;;;;;13.48;2.45;;;;;;;;;;4938913;28;25079;-75
2023/03/30 07:03:40;;;;;;;10.60;3.25;;;;;;;;;;4948364;28;25144;-75
2023/03/30 07:06:07;;;;;;;13.48;2.85;;;;;;;;;;4948073;28;25070;-75
2023/03/30 07:08:34;;;;;;;27.75;3.88;;;;;;;;;;4935257;28;25051;-73
2023/03/30 07:11:00;;;;;;;13.35;2.95;;;;;;;;;;4938952;28;25189;-76
2023/03/30 07:13:27;;;;;;;22.20;3.28;;;;;;;;;;4937450;28;25046;-75
2023/03/30 07:15:53;;;;;;;12.70;2.53;;;;;;;;;;4939651;28;25072;-74
2023/03/30 07:18:19;;;;;;;18.63;3.28;;;;;;;;;;4943941;28;25079;-80
2023/03/30 07:20:45;;;;;;;17.52;4.13;;;;;;;;;;4962027;28;25042;-79
2023/03/30 07:23:11;;;;;;;15.82;3.60;;;;;;;;;;4967773;28;25063;-75
2023/03/30 07:25:38;;;;;;;15.80;3.30;;;;;;;;;;4955200;28;25076;-74
2023/03/30 07:28:07;;;;;;;13.18;3.17;;;;;;;;;;4941958;28;25160;-76
2023/03/30 07:30:34;;;;;;;15.02;3.20;;;;;;;;;;4940265;28;25069;-75
2023/03/30 07:32:59;;;;;;;17.85;3.00;;;;;;;;;;4964485;28;25097;-76
2023/03/30 07:35:26;;;;;;;23.80;3.55;;;;;;;;;;4962697;28;25075;-77
2023/03/30 07:37:52;;;;;;;20.05;3.72;;;;;;;;;;4954262;28;25099;-73
2023/03/30 07:40:20;;;;;;;20.55;4.20;;;;;;;;;;4949653;28;25075;-74
2023/03/30 07:42:46;;;;;;;18.30;3.90;;;;;;;;;;4943638;28;25059;-76
2023/03/30 07:45:12;;;;;;;26.63;4.40;;;;;;;;;;4941343;28;25057;-74
2023/03/30 07:47:38;;;;;;;19.33;4.40;;;;;;;;;;4942155;28;25072;-76
2023/03/30 07:50:05;;;;;;;14.00;3.22;;;;;;;;;;4943436;28;25092;-77
2023/03/30 07:52:31;;;;;;;20.90;3.83;;;;;;;;;;4935588;28;25099;-76
2023/03/30 07:54:57;;;;;;;11.13;3.40;;;;;;;;;;4937270;28;25072;-76
2023/03/30 07:57:23;;;;;;;24.05;4.75;;;;;;;;;;4936268;28;25101;-76
2023/03/30 07:59:49;;;;;;;20.40;4.15;;;;;;;;;;4944228;28;25106;-74
2023/03/30 08:02:16;;;;;;;31.23;4.57;;;;;;;;;;4938944;28;25123;-76
2023/03/30 08:04:43;;;;;;;21.75;4.15;;;;;;;;;;4944797;28;25064;-73
2023/03/30 08:07:09;;;;;;;23.35;4.60;;;;;;;;;;4947220;28;25073;-75
2023/03/30 08:09:35;;;;;;;14.57;4.03;;;;;;;;;;4950945;28;25060;-75
2023/03/30 08:12:01;;;;;;;22.75;4.60;;;;;;;;;;4960780;28;25083;-73
2023/03/30 08:14:27;;;;;;;26.90;5.18;;;;;;;;;;4942225;28;25077;-75
2023/03/30 08:16:54;;;;;;;25.05;6.20;;;;;;;;;;4944248;28;25153;-76
2023/03/30 08:19:20;;;;;;;23.98;5.57;;;;;;;;;;4947429;28;25106;-73
2023/03/30 08:21:46;;;;;;;27.63;5.38;;;;;;;;;;4942339;28;25136;-78
2023/03/30 08:24:13;;;;;;;23.77;5.95;;;;;;;;;;4946817;28;25080;-74
2023/03/30 08:26:39;;;;;;;31.45;5.72;;;;;;;;;;4936536;28;25134;-76
2023/03/30 08:29:05;;;;;;;24.10;6.38;;;;;;;;;;4935751;28;25072;-78
2023/03/30 08:31:32;;;;;;;27.85;5.32;;;;;;;;;;4937167;28;25067;-77
2023/03/30 08:34:03;;;;;;;29.05;7.22;;;;;;;;;;4938804;28;25053;-76
2023/03/30 08:36:29;;;;;;;30.48;5.40;;;;;;;;;;4945164;28;25089;-76
2023/03/30 08:38:55;;;;;;;30.23;5.22;;;;;;;;;;4945582;28;25169;-76
2023/03/30 08:41:23;;;;;;;26.30;6.35;;;;;;;;;;4942715;28;25082;-74
2023/03/30 08:44:08;;;;;;;24.42;4.93;;;;;;;;;;4946194;28;25152;-76
2023/03/30 08:46:37;;;;;;;30.05;6.00;;;;;;;;;;4942234;28;25093;-78
2023/03/30 08:49:05;;;;;;;22.27;4.45;;;;;;;;;;4939924;28;25056;-79
2023/03/30 08:51:32;;;;;;;30.38;5.03;;;;;;;;;;4955756;28;25076;-76
2023/03/30 08:54:00;;;;;;;48.08;6.93;;;;;;;;;;4950589;28;25064;-76
2023/03/30 08:56:31;;;;;;;34.50;5.07;;;;;;;;;;4941717;28;25086;-77
2023/03/30 08:59:12;;;;;;;28.05;5.65;;;;;;;;;;4938947;28;25061;-75
2023/03/30 09:01:53;;;;;;;17.45;4.85;;;;;;;;;;4936590;28;25053;-76
2023/03/30 09:04:37;;;;;;;41.40;8.35;;;;;;;;;;4936230;28;25067;-76
2023/03/30 09:07:07;;;;;;;26.25;4.32;;;;;;;;;;4941241;28;25080;-74
2023/03/30 09:09:38;;;;;;;25.13;4.82;;;;;;;;;;4938753;28;25075;-75
2023/03/30 09:12:07;;;;;;;24.67;4.18;;;;;;;;;;4941518;28;25089;-77
2023/03/30 09:14:38;;;;;;;30.65;6.55;;;;;;;;;;4949433;28;25094;-74
2023/03/30 09:17:11;;;;;;;29.80;5.63;;;;;;;;;;4958464;28;25136;-75
2023/03/30 09:19:47;;;;;;;28.80;4.90;;;;;;;;;;4961016;28;25070;-72
2023/03/30 09:22:14;;;;;;;25.90;4.90;;;;;;;;;;4958509;28;25065;-76
2023/03/30 09:24:40;;;;;;;36.08;7.43;;;;;;;;;;4961100;28;25096;-73
2023/03/30 09:27:13;;;;;;;27.58;4.60;;;;;;;;;;4958846;28;25058;-75
2023/03/30 09:29:50;;;;;;;22.77;4.70;;;;;;;;;;4963733;28;25062;-77
2023/03/30 09:32:19;;;;;;;23.63;4.60;;;;;;;;;;4960804;28;25068;-76
2023/03/30 09:34:48;;;;;;;25.10;5.45;;;;;;;;;;4963167;28;25058;-75
2023/03/30 09:37:17;;;;;;;24.58;4.20;;;;;;;;;;4946828;28;25112;-75
2023/03/30 09:39:44;;;;;;;25.85;5.50;;;;;;;;;;4936110;28;25143;-75
2023/03/30 09:42:31;;;;;;;31.15;5.22;;;;;;;;;;4949415;28;25084;-74
2023/03/30 09:45:06;;;;;;;31.65;5.20;;;;;;;;;;4947202;28;25177;-75
2023/03/30 09:47:32;;;;;;;27.13;5.20;;;;;;;;;;4940113;28;25065;-73
2023/03/30 09:49:59;;;;;;;27.38;4.53;;;;;;;;;;4939991;28;25069;-71
2023/03/30 09:52:26;;;;;;;26.85;5.45;;;;;;;;;;4947726;28;25068;-74
2023/03/30 09:54:52;;;;;;;39.78;5.25;;;;;;;;;;4952130;28;25060;-75
2023/03/30 09:57:45;;;;;;;28.00;5.47;;;;;;;;;;4945976;28;25087;-72
2023/03/30 10:00:31;;;;;;;25.70;6.32;;;;;;;;;;4936529;28;25088;-70
2023/03/30 10:02:58;;;;;;;22.67;4.43;;;;;;;;;;4944837;28;25058;-72
2023/03/30 10:05:24;;;;;;;24.95;3.72;;;;;;;;;;4945536;28;25067;-75
2023/03/30 10:07:55;;;;;;;18.83;4.82;;;;;;;;;;4950296;28;25090;-75
2023/03/30 10:10:30;;;;;;;29.70;4.78;;;;;;;;;;4947393;28;25135;-73
2023/03/30 10:13:05;;;;;;;27.02;4.35;;;;;;;;;;4941212;28;25051;-73
2023/03/30 10:15:31;;;;;;;29.85;4.57;;;;;;;;;;4941730;28;25102;-74
2023/03/30 10:18:01;;;;;;;24.52;4.65;;;;;;;;;;4943957;28;25083;-74
2023/03/30 10:20:37;;;;;;;29.05;3.55;;;;;;;;;;4938545;28;25138;-76
2023/03/30 10:23:07;;;;;;;30.05;5.65;;;;;;;;;;4938111;28;25123;-74
2023/03/30 10:25:33;;;;;;;23.20;3.72;;;;;;;;;;4945816;28;25062;-74
2023/03/30 10:28:01;;;;;;;15.75;4.15;;;;;;;;;;4945699;28;25068;-73
2023/03/30 10:30:28;;;;;;;21.13;4.95;;;;;;;;;;4944658;28;25146;-74
2023/03/30 10:32:55;;;;;;;19.70;3.60;;;;;;;;;;4943289;28;25067;-73
2023/03/30 10:35:23;;;;;;;21.90;4.30;;;;;;;;;;4943752;28;25148;-72
2023/03/30 10:37:51;;;;;;;20.08;4.72;;;;;;;;;;4938750;28;25077;-72
2023/03/30 10:40:26;;;;;;;25.80;5.22;;;;;;;;;;4950458;28;25180;-73
2023/03/30 10:42:58;;;;;;;27.13;5.22;;;;;;;;;;4950696;28;25077;-73
2023/03/30 10:45:24;;;;;;;;;;;;;;;;;;4956785;28;25102;-72
2023/03/30 10:47:56;;;;;;;26.52;4.00;;;;;;;;;;4958825;28;25140;-73
2023/03/30 10:50:39;;;;;;;32.88;4.43;;;;;;;;;;4960154;28;25157;-70
2023/03/30 10:53:05;;;;;;;25.85;5.15;;;;;;;;;;4952529;28;25060;-78
2023/03/30 10:55:42;;;;;;;28.00;5.30;;;;;;;;;;4950587;28;25112;-75
2023/03/30 10:58:11;;;;;;;31.88;4.18;;;;;;;;;;4957068;28;25062;-73
2023/03/30 11:00:37;;;;;;;25.25;4.70;;;;;;;;;;4941637;28;25140;-74
2023/03/30 11:03:07;;;;;;;23.13;4.90;;;;;;;;;;4944195;28;25073;-72
2023/03/30 11:05:35;;;;;;;19.05;3.47;;;;;;;;;;4947215;28;25067;-72
2023/03/30 11:08:03;;;;;;;29.20;4.80;;;;;;;;;;4943284;28;25088;-71
2023/03/30 11:10:35;;;;;;;23.23;3.75;;;;;;;;;;4950870;28;25154;-74
2023/03/30 11:13:06;;;;;;;15.75;3.47;;;;;;;;;;4947290;28;25080;-72
2023/03/30 11:15:38;;;;;;;31.00;5.72;;;;;;;;;;4950432;28;25073;-73
2023/03/30 11:18:17;;;;;;;15.10;4.10;;;;;;;;;;4935741;28;25072;-74
2023/03/30 11:20:47;;;;;;;19.92;5.22;;;;;;;;;;4939951;28;25095;-76
2023/03/30 11:23:16;;;;;;;18.65;4.07;;;;;;;;;;4943609;28;25079;-73
2023/03/30 11:25:52;;;;;;;20.20;3.72;;;;;;;;;;4943872;28;25065;-73
2023/03/30 11:28:22;;;;;;;18.90;4.00;;;;;;;;;;4937167;28;25066;-74
2023/03/30 11:30:50;;;;;;;21.02;4.13;;;;;;;;;;4956105;28;25067;-72
2023/03/30 11:33:29;;;;;;;23.00;4.10;;;;;;;;;;4946395;28;25115;-72
2023/03/30 11:35:57;;;;;;;22.67;4.68;;;;;;;;;;4948798;28;25154;-72
2023/03/30 11:38:29;;;;;;;32.70;5.88;;;;;;;;;;4945356;28;25063;-70
2023/03/30 11:40:59;;;;;;;18.55;5.00;;;;;;;;;;4946260;28;25092;-75
2023/03/30 11:43:28;;;;;;;26.60;4.78;;;;;;;;;;4945368;28;25064;-74
2023/03/30 11:46:00;;;;;;;31.25;5.60;;;;;;;;;;4951251;28;25073;-73
2023/03/30 11:48:26;;;;;;;21.52;5.28;;;;;;;;;;4948473;28;25068;-75
2023/03/30 11:50:59;;;;;;;24.38;4.57;;;;;;;;;;4949301;28;25129;-75
2023/03/30 11:53:32;;;;;;;23.75;4.15;;;;;;;;;;4938574;28;25096;-76
2023/03/30 11:56:13;;;;;;;28.08;4.47;;;;;;;;;;4941119;28;25065;-76
2023/03/30 11:58:43;;;;;;;23.58;4.25;;;;;;;;;;4944974;28;25055;-74
2023/03/30 12:01:09;;;;;;;29.67;4.47;;;;;;;;;;4950554;28;25136;-73
2023/03/30 12:03:35;;;;;;;28.48;4.03;;;;;;;;;;4939277;28;25135;-74
2023/03/30 12:06:40;;;;;;;20.77;4.00;;;;;;;;;;4935323;28;25081;-71
2023/03/30 12:09:18;;;;;;;25.02;4.68;;;;;;;;;;4915842;28;25152;-75
2023/03/30 12:11:50;;;;;;;22.88;4.05;;;;;;;;;;4901715;28;25058;-74
2023/03/30 12:14:45;;;;;;;22.55;3.85;;;;;;;;;;4919717;28;25109;-76
2023/03/30 12:17:25;;;;;;;24.23;6.07;;;;;;;;;;4929629;28;25066;-73
2023/03/30 12:19:56;;;;;;;18.10;3.85;;;;;;;;;;4948565;28;25058;-74
2023/03/30 12:22:29;;;;;;;27.25;4.65;;;;;;;;;;4954027;28;25052;-77
2023/03/30 12:25:03;;;;;;;22.60;4.53;;;;;;;;;;4946223;28;25054;-77
2023/03/30 12:27:33;;;;;;;19.20;4.53;;;;;;;;;;4945890;28;25096;-75
2023/03/30 12:30:11;;;;;;;20.25;4.97;;;;;;;;;;4935652;28;25063;-72
2023/03/30 12:32:37;;;;;;;20.85;3.63;;;;;;;;;;4936901;28;25070;-75
2023/03/30 12:35:23;;;;;;;21.75;3.75;;;;;;;;;;4940085;28;25089;-74
2023/03/30 12:37:51;;;;;;;26.10;4.45;;;;;;;;;;4938598;28;25070;-75
2023/03/30 12:40:20;;;;;;;21.15;3.80;;;;;;;;;;4941283;28;25098;-77
2023/03/30 12:43:08;;;;;;;26.30;4.82;;;;;;;;;;4941276;28;25110;-77
2023/03/30 12:45:35;;;;;;;23.73;4.45;;;;;;;;;;4947833;28;25049;-73
2023/03/30 12:48:10;;;;;;;22.30;3.90;;;;;;;;;;4942264;28;25183;-71
2023/03/30 12:50:42;;;;;;;16.75;3.88;;;;;;;;;;4949737;28;25103;-76
2023/03/30 12:53:14;;;;;;;15.90;3.70;;;;;;;;;;4967171;28;25066;-79
2023/03/30 12:55:43;;;;;;;23.17;3.97;;;;;;;;;;4964230;28;25098;-77
2023/03/30 12:58:26;;;;;;;25.70;5.32;;;;;;;;;;4965885;28;25104;-74
2023/03/30 13:01:11;;;;;;;10.27;3.05;;;;;;;;;;4945793;28;25106;-80
2023/03/30 13:03:39;;;;;;;16.85;3.03;;;;;;;;;;4950960;28;25060;-78
2023/03/30 13:06:26;;;;;;;21.42;3.92;;;;;;;;;;4960307;28;25074;-76
2023/03/30 13:09:15;;;;;;;18.10;3.58;;;;;;;;;;4947010;28;25067;-73
2023/03/30 13:11:45;;;;;;;29.85;4.57;;;;;;;;;;4946841;28;25078;-75
2023/03/30 13:14:29;;;;;;;25.08;3.97;;;;;;;;;;4931731;28;25112;-75
2023/03/30 13:16:55;;;;;;;24.33;3.70;;;;;;;;;;4934745;28;25058;-75
2023/03/30 13:19:30;;;;;;;20.73;3.40;;;;;;;;;;4945838;28;25076;-72
2023/03/30 13:21:58;;;;;;;20.63;3.42;;;;;;;;;;4941671;28;25061;-75
2023/03/30 13:24:27;;;;;;;19.13;3.72;;;;;;;;;;4934315;28;25107;-76
2023/03/30 13:26:53;;;;;;;20.17;4.25;;;;;;;;;;4936089;28;25126;-76
2023/03/30 13:29:20;;;;;;;17.73;3.60;;;;;;;;;;4933329;28;25107;-74
2023/03/30 13:31:58;;;;;;;17.98;4.13;;;;;;;;;;4938050;28;25058;-77
2023/03/30 13:34:43;;;;;;;13.48;3.35;;;;;;;;;;4937197;28;25055;-74
2023/03/30 13:37:39;;;;;;;15.15;3.45;;;;;;;;;;4943016;28;25053;-74
2023/03/30 13:40:14;;;;;;;24.65;4.93;;;;;;;;;;4935042;28;25076;-75
2023/03/30 13:42:53;;;;;;;20.20;4.70;;;;;;;;;;4945518;28;25071;-77
2023/03/30 13:45:34;;;;;;;22.20;4.00;;;;;;;;;;4928882;28;25081;-79
2023/03/30 13:48:10;;;;;;;16.08;3.35;;;;;;;;;;4942427;28;25139;-77
2023/03/30 13:50:37;;;;;;;26.00;5.20;;;;;;;;;;4941787;28;25080;-74
2023/03/30 13:53:07;;;;;;;16.13;3.92;;;;;;;;;;4937243;28;25067;-76
2023/03/30 13:55:38;;;;;;;15.30;4.10;;;;;;;;;;4937942;28;25076;-77
2023/03/30 13:58:05;;;;;;;22.77;5.40;;;;;;;;;;4944605;28;25150;-75
2023/03/30 14:00:51;;;;;;;21.63;4.15;;;;;;;;;;4944766;28;24728;-74
2023/03/30 14:03:31;;;;;;;17.20;4.05;;;;;;;;;;4936736;28;25049;-77
2023/03/30 14:06:02;;;;;;;17.98;3.25;;;;;;;;;;4933092;28;25129;-76
2023/03/30 14:08:33;;;;;;;19.25;3.03;;;;;;;;;;4945039;28;25042;-75
2023/03/30 14:11:00;;;;;;;19.50;3.25;;;;;;;;;;4939680;28;25080;-73
2023/03/30 14:13:27;;;;;;;16.77;3.50;;;;;;;;;;4938779;28;25003;-75
2023/03/30 14:15:53;;;;;;;19.90;3.03;;;;;;;;;;4936212;28;25051;-71
2023/03/30 14:18:22;;;;;;;15.45;3.15;;;;;;;;;;4930578;28;25080;-75
2023/03/30 14:20:53;;;;;;;15.90;3.83;;;;;;;;;;4934875;28;25187;-76
2023/03/30 14:23:35;;;;;;;12.45;2.90;;;;;;;;;;4931310;28;25103;-75
2023/03/30 14:26:03;;;;;;;24.55;3.60;;;;;;;;;;4936787;28;25146;-74
2023/03/30 14:28:31;;;;;;;21.33;3.63;;;;;;;;;;4936586;28;25159;-76
2023/03/30 14:31:01;;;;;;;14.80;3.90;;;;;;;;;;4938797;28;25067;-74
2023/03/30 14:33:27;;;;;;;12.20;3.00;;;;;;;;;;4939554;28;25062;-77
2023/03/30 14:35:57;;;;;;;14.07;3.20;;;;;;;;;;4936476;28;25069;-76
2023/03/30 14:38:29;;;;;;;13.52;2.70;;;;;;;;;;4935710;28;25072;-71
2023/03/30 14:40:55;;;;;;;15.88;3.60;;;;;;;;;;4936694;28;25100;-77
2023/03/30 14:43:26;;;;;;;12.98;3.03;;;;;;;;;;4940113;28;25071;-74
2023/03/30 14:45:53;;;;;;;19.02;3.17;;;;;;;;;;4944361;28;25101;-76
2023/03/30 14:48:25;;;;;;;31.73;3.63;;;;;;;;;;4944351;28;25083;-78
2023/03/30 14:50:51;;;;;;;13.23;3.20;;;;;;;;;;4953838;28;25068;-75